Time;durP1;ratioP1;P1;durP2;ratioP2;P2;SDS_P1;SDS_P2;PMS_P1;PMS_P2;Temp;Humidity;BMP_temperature;BMP_pressure;BME280_temperature;BME280_humidity;BME280_pressure;Samples;Min_cycle;Max_cycle;Signal;HPM_P1;HPM_P2
2022/12/29 00:02:09;;;;;;;;;;;;;;;18.33;55.65;102055.09;7402631;19;1844;-62
2022/12/29 00:04:37;;;;;;;;;;;;;;;18.16;56.02;102064.22;7405227;19;1005;-66
2022/12/29 00:07:05;;;;;;;;;;;;;;;18.04;56.55;102065.00;7405590;19;927;-62
2022/12/29 00:09:34;;;;;;;;;;;;;;;18.15;56.08;102065.19;7405131;19;1007;-66
2022/12/29 00:12:03;;;;;;;;;;;;;;;18.42;55.44;102072.38;7404975;19;922;-67
2022/12/29 00:17:14;;;;;;;;;;;;;;;18.23;55.89;102065.53;7404451;19;781;-66
2022/12/29 00:35:56;;;;;;;;;;;;;;;18.43;55.33;102071.44;7404316;19;765;-62
2022/12/29 00:46:26;;;;;;;;;;;;;;;18.51;55.04;102063.75;7403741;19;879;-62
2022/12/29 00:51:38;;;;;;;;;;;;;;;18.14;56.19;102046.53;7403391;19;725;-63
2022/12/29 00:54:06;;;;;;;;;;;;;;;18.37;55.45;102050.41;7403585;19;958;-63
2022/12/29 00:56:34;;;;;;;;;;;;;;;18.54;55.20;102063.53;7403026;19;1187;-62
2022/12/29 00:59:03;;;;;;;;;;;;;;;18.37;55.42;102058.44;7403448;19;1034;-62
2022/12/29 01:01:32;;;;;;;;;;;;;;;18.19;56.08;102066.72;7402333;19;1843;-66
2022/12/29 01:04:03;;;;;;;;;;;;;;;18.35;55.64;102071.06;7406228;19;1060;-66
2022/12/29 01:06:31;;;;;;;;;;;;;;;18.57;55.14;102058.00;7403221;19;1150;-67
2022/12/29 01:11:40;;;;;;;;;;;;;;;18.37;55.35;102050.41;7403126;19;754;-63
2022/12/29 01:14:09;;;;;;;;;;;;;;;18.35;55.62;102041.63;7402685;19;1004;-67
2022/12/29 01:16:37;;;;;;;;;;;;;;;18.49;55.23;102042.41;7402839;19;964;-67
2022/12/29 01:19:08;;;;;;;;;;;;;;;18.58;54.82;102037.41;7402868;19;1005;-63
2022/12/29 01:21:36;;;;;;;;;;;;;;;18.33;55.35;102022.13;7401528;19;1859;-67
2022/12/29 01:24:04;;;;;;;;;;;;;;;18.23;55.85;102027.22;7402662;19;1013;-66
2022/12/29 01:26:33;;;;;;;;;;;;;;;18.33;55.73;102038.19;7401989;19;1883;-66
2022/12/29 01:29:01;;;;;;;;;;;;;;;18.55;55.20;102025.09;7402489;19;958;-62
2022/12/29 01:31:29;;;;;;;;;;;;;;;18.60;54.86;102011.38;7402445;19;1013;-62
2022/12/29 01:33:58;;;;;;;;;;;;;;;18.36;55.22;102027.25;7402340;19;1005;-66
2022/12/29 01:36:29;;;;;;;;;;;;;;;17.65;57.20;102000.50;7402169;19;964;-66
2022/12/29 01:38:58;;;;;;;;;;;;;;;17.24;58.14;102011.09;7401727;19;1021;-63
2022/12/29 01:41:26;;;;;;;;;;;;;;;17.02;59.03;102039.09;7401075;19;1864;-63
2022/12/29 01:43:56;;;;;;;;;;;;;;;16.80;59.50;102022.59;7401876;19;982;-67
2022/12/29 01:46:28;;;;;;;;;;;;;;;16.54;60.30;102027.66;7401494;19;1166;-67
2022/12/29 01:48:59;;;;;;;;;;;;;;;16.43;60.82;102030.06;7401877;19;998;-67
2022/12/29 01:51:31;;;;;;;;;;;;;;;16.47;61.02;102020.94;7401855;19;947;-66
2022/12/29 01:54:01;;;;;;;;;;;;;;;16.61;60.52;102013.00;7401276;19;1000;-67
2022/12/29 01:56:29;;;;;;;;;;;;;;;16.83;59.67;102003.75;7400173;19;997;-67
2022/12/29 01:59:02;;;;;;;;;;;;;;;17.39;58.01;101993.22;7406507;19;930;-64
2022/12/29 02:01:31;;;;;;;;;;;;;;;17.86;56.99;101994.78;7406861;19;1852;-63
2022/12/29 02:03:59;;;;;;;;;;;;;;;18.36;55.78;102000.47;7409251;19;1019;-66
2022/12/29 02:06:32;;;;;;;;;;;;;;;18.44;55.44;101982.97;7408696;19;996;-63
2022/12/29 02:09:00;;;;;;;;;;;;;;;18.37;55.54;102003.06;7408749;19;904;-67
2022/12/29 02:11:29;;;;;;;;;;;;;;;18.50;55.21;102005.78;7408198;19;1898;-66
2022/12/29 02:13:57;;;;;;;;;;;;;;;18.53;55.16;102005.59;7407203;19;985;-66
2022/12/29 02:16:33;;;;;;;;;;;;;;;18.44;55.16;102003.50;7408472;19;1009;-63
2022/12/29 02:19:10;;;;;;;;;;;;;;;18.32;55.64;102010.53;7408455;19;945;-67
2022/12/29 02:21:55;;;;;;;;;;;;;;;18.35;55.54;101998.78;7407686;19;1837;-67
2022/12/29 02:24:40;;;;;;;;;;;;;;;18.52;55.22;101998.50;7407734;19;986;-66
2022/12/29 02:27:20;;;;;;;;;;;;;;;18.58;54.93;101990.06;7407961;19;954;-66
2022/12/29 02:30:04;;;;;;;;;;;;;;;18.39;55.27;101977.03;7408371;19;946;-62
2022/12/29 02:32:39;;;;;;;;;;;;;;;18.43;55.29;101972.34;7407870;19;993;-67
2022/12/29 02:35:11;;;;;;;;;;;;;;;18.54;54.99;101975.13;7407785;19;997;-66
2022/12/29 02:37:43;;;;;;;;;;;;;;;18.56;54.69;101965.22;7407605;19;1139;-63
2022/12/29 02:40:18;;;;;;;;;;;;;;;18.46;55.14;101982.84;7407560;19;1039;-63
2022/12/29 02:42:52;;;;;;;;;;;;;;;18.37;55.21;101968.25;7405970;19;1857;-62
2022/12/29 02:45:23;;;;;;;;;;;;;;;18.47;55.25;101974.69;7407457;19;992;-67
2022/12/29 02:47:59;;;;;;;;;;;;;;;18.47;55.20;101965.81;7407643;19;1031;-63
2022/12/29 02:50:29;;;;;;;;;;;;;;;18.49;55.10;101990.69;7407651;19;1005;-66
2022/12/29 02:53:00;;;;;;;;;;;;;;;18.39;55.51;101970.81;7407541;19;938;-66
2022/12/29 02:55:25;;;;;;;;;;;;;;;18.59;55.03;101970.34;7407072;19;1059;-66
2022/12/29 02:58:09;;;;;;;;;;;;;;;18.59;54.93;101970.34;7406984;19;1051;-67
2022/12/29 03:00:41;;;;;;;;;;;;;;;18.54;54.85;101967.09;7405594;19;1033;-67
2022/12/29 03:03:20;;;;;;;;;;;;;;;18.39;55.34;101954.75;7406354;19;1838;-63
2022/12/29 03:06:02;;;;;;;;;;;;;;;18.46;54.98;101975.69;7406680;19;993;-67
2022/12/29 03:08:34;;;;;;;;;;;;;;;18.58;54.96;101982.03;7407060;19;960;-67
2022/12/29 03:11:05;;;;;;;;;;;;;;;18.54;54.90;101955.53;7406561;19;1079;-63
2022/12/29 03:16:22;;;;;;;;;;;;;;;18.49;55.03;101972.78;7406867;19;710;-67
2022/12/29 03:18:58;;;;;;;;;;;;;;;18.62;54.71;101966.59;7406851;19;988;-67
2022/12/29 03:24:13;;;;;;;;;;;;;;;18.47;54.95;101979.22;7403361;19;1034;-62
2022/12/29 03:26:43;;;;;;;;;;;;;;;18.52;55.36;101989.59;7405916;19;1028;-67
2022/12/29 03:29:12;;;;;;;;;;;;;;;18.58;54.86;101974.00;7405898;19;1914;-62
2022/12/29 03:31:41;;;;;;;;;;;;;;;18.66;54.67;101992.22;7406354;19;968;-63
2022/12/29 03:34:14;;;;;;;;;;;;;;;18.67;54.68;101977.88;7406327;19;1020;-62
2022/12/29 03:36:47;;;;;;;;;;;;;;;18.66;54.62;102002.91;7406146;19;1038;-62
2022/12/29 03:39:16;;;;;;;;;;;;;;;18.61;54.72;101992.53;7405964;19;980;-62
2022/12/29 03:41:46;;;;;;;;;;;;;;;18.60;55.01;101993.50;7405425;19;1849;-67
2022/12/29 03:44:15;;;;;;;;;;;;;;;18.56;54.87;101989.31;7405498;19;996;-66
2022/12/29 03:46:43;;;;;;;;;;;;;;;18.50;54.81;101989.69;7405433;19;996;-62
2022/12/29 03:49:14;;;;;;;;;;;;;;;18.59;54.66;101975.69;7405675;19;1009;-62
2022/12/29 03:51:42;;;;;;;;;;;;;;;18.60;54.88;101990.81;7405594;19;1053;-67
2022/12/29 03:54:10;;;;;;;;;;;;;;;18.58;54.86;101987.41;7405097;19;1136;-67
2022/12/29 03:56:39;;;;;;;;;;;;;;;18.58;55.05;101982.03;7405095;19;1083;-66
2022/12/29 03:59:07;;;;;;;;;;;;;;;18.57;54.96;101974.94;7409329;19;1191;-62
2022/12/29 04:01:35;;;;;;;;;;;;;;;18.56;55.06;101981.28;7403386;19;1846;-66
2022/12/29 04:04:04;;;;;;;;;;;;;;;18.58;54.82;101990.06;7404908;19;1036;-67
2022/12/29 04:06:35;;;;;;;;;;;;;;;18.53;54.76;101992.19;7405076;19;943;-62
2022/12/29 04:09:03;;;;;;;;;;;;;;;18.61;54.96;102000.56;7405208;19;994;-67
2022/12/29 04:11:31;;;;;;;;;;;;;;;18.56;54.97;101992.00;7404616;19;997;-62
2022/12/29 04:13:59;;;;;;;;;;;;;;;18.55;54.91;101990.25;7402989;19;1000;-66
2022/12/29 04:16:28;;;;;;;;;;;;;;;18.57;55.02;102000.88;7404331;19;997;-66
2022/12/29 04:18:56;;;;;;;;;;;;;;;18.57;55.06;101999.06;7404408;19;1004;-67
2022/12/29 04:21:24;;;;;;;;;;;;;;;18.59;54.86;101985.56;7403408;19;1035;-67
2022/12/29 04:23:55;;;;;;;;;;;;;;;18.58;54.94;101994.53;7402194;19;1852;-67
2022/12/29 04:26:24;;;;;;;;;;;;;;;18.60;54.79;101982.78;7404052;19;1101;-62
2022/12/29 04:28:52;;;;;;;;;;;;;;;18.56;54.71;101989.31;7403811;19;1067;-67
2022/12/29 04:31:20;;;;;;;;;;;;;;;18.53;54.79;101991.34;7403240;19;1051;-66
2022/12/29 04:33:48;;;;;;;;;;;;;;;18.01;56.44;102001.81;7402304;19;1071;-67
2022/12/29 04:36:17;;;;;;;;;;;;;;;17.53;56.42;101989.69;7402363;19;1020;-62
2022/12/29 04:38:45;;;;;;;;;;;;;;;17.18;58.03;102003.44;7402431;19;1023;-62
2022/12/29 04:41:16;;;;;;;;;;;;;;;16.89;58.42;101998.91;7402508;19;1017;-62
2022/12/29 04:43:44;;;;;;;;;;;;;;;16.73;59.87;101997.19;7400877;19;1853;-66
2022/12/29 04:46:12;;;;;;;;;;;;;;;16.76;60.15;102015.72;7401728;19;1017;-67
2022/12/29 04:48:41;;;;;;;;;;;;;;;16.76;60.15;101999.69;7401962;19;1095;-63
2022/12/29 04:51:09;;;;;;;;;;;;;;;16.87;59.82;102000.81;7402303;19;1001;-67
2022/12/29 04:53:37;;;;;;;;;;;;;;;16.84;59.88;102008.16;7401518;19;1044;-63
2022/12/29 04:56:06;;;;;;;;;;;;;;;16.85;59.79;101997.38;7401622;19;988;-62
2022/12/29 04:58:37;;;;;;;;;;;;;;;17.81;57.22;102005.75;7401617;19;989;-63
2022/12/29 05:01:05;;;;;;;;;;;;;;;18.16;56.29;102005.31;7401037;19;1351;-67
2022/12/29 05:03:34;;;;;;;;;;;;;;;18.32;55.57;102015.03;7399324;19;1833;-63
2022/12/29 05:06:02;;;;;;;;;;;;;;;18.27;55.78;102018.88;7401555;19;1063;-67
2022/12/29 05:08:31;;;;;;;;;;;;;;;18.42;55.45;102011.66;7401149;19;1068;-63
2022/12/29 05:11:00;;;;;;;;;;;;;;;18.55;54.97;102008.16;7400854;19;1088;-67
2022/12/29 05:13:28;;;;;;;;;;;;;;;18.57;54.75;102012.44;7401368;19;1068;-67
2022/12/29 05:15:59;;;;;;;;;;;;;;;18.61;54.89;102011.28;7400921;19;1080;-66
2022/12/29 05:18:28;;;;;;;;;;;;;;;18.55;54.98;102014.38;7401006;19;1000;-62
2022/12/29 05:20:56;;;;;;;;;;;;;;;18.56;54.99;102017.91;7401179;19;1096;-62
2022/12/29 05:23:24;;;;;;;;;;;;;;;18.63;54.77;102014.72;7399560;19;1840;-67
2022/12/29 05:25:53;;;;;;;;;;;;;;;18.61;54.77;102019.31;7400925;19;1985;-67
2022/12/29 05:28:21;;;;;;;;;;;;;;;18.61;54.70;102015.78;7401203;19;1087;-67
2022/12/29 05:30:50;;;;;;;;;;;;;;;18.62;54.70;102021.06;7400164;19;1027;-62
2022/12/29 05:33:22;;;;;;;;;;;;;;;18.41;55.29;102017.13;7398150;19;970;-62
2022/12/29 05:35:50;;;;;;;;;;;;;;;18.27;55.57;102028.72;7400893;19;1009;-63
2022/12/29 05:38:18;;;;;;;;;;;;;;;18.11;56.03;102019.97;7400106;19;1012;-63
2022/12/29 05:40:47;;;;;;;;;;;;;;;18.03;55.80;102005.25;7399901;19;1012;-67
2022/12/29 05:43:15;;;;;;;;;;;;;;;17.99;56.29;102000.22;7399400;19;1829;-67
2022/12/29 05:45:43;;;;;;;;;;;;;;;17.94;56.33;102002.31;7400052;19;977;-67
2022/12/29 05:48:12;;;;;;;;;;;;;;;17.86;56.19;101984.91;7399889;19;1046;-67
2022/12/29 05:50:43;;;;;;;;;;;;;;;17.90;56.21;102004.31;7400358;19;1052;-63
2022/12/29 05:53:11;;;;;;;;;;;;;;;17.87;56.18;101993.84;7399758;19;947;-67
2022/12/29 05:55:40;;;;;;;;;;;;;;;17.83;56.34;102001.19;7400161;19;997;-63
2022/12/29 05:58:08;;;;;;;;;;;;;;;17.83;56.62;102002.97;7400189;19;1067;-67
2022/12/29 06:00:36;;;;;;;;;;;;;;;17.80;56.62;101998.66;7399194;19;1161;-66
2022/12/29 06:03:04;;;;;;;;;;;;;;;17.76;56.64;101998.97;7397984;19;1853;-67
2022/12/29 06:05:33;;;;;;;;;;;;;;;17.76;56.75;101996.28;7400625;19;943;-67
2022/12/29 06:08:04;;;;;;;;;;;;;;;17.74;56.50;101999.06;7399538;19;988;-67
2022/12/29 06:10:32;;;;;;;;;;;;;;;17.70;56.81;101992.19;7399568;19;943;-67
2022/12/29 06:13:00;;;;;;;;;;;;;;;17.75;56.68;102003.47;7399668;19;991;-67
2022/12/29 06:15:29;;;;;;;;;;;;;;;17.91;56.26;101989.16;7400036;19;1014;-63
2022/12/29 06:17:57;;;;;;;;;;;;;;;18.10;55.47;102000.34;7399611;19;1080;-63
2022/12/29 06:20:26;;;;;;;;;;;;;;;18.41;55.07;101993.00;7398782;19;1814;-62
2022/12/29 06:22:54;;;;;;;;;;;;;;;18.45;54.84;102006.09;7399252;19;1852;-66
2022/12/29 06:25:25;;;;;;;;;;;;;;;18.35;54.96;101988.91;7399195;19;1000;-66
2022/12/29 06:27:53;;;;;;;;;;;;;;;18.64;54.68;102010.22;7398934;19;930;-62
2022/12/29 06:30:21;;;;;;;;;;;;;;;18.63;54.46;102014.72;7399948;19;994;-63
2022/12/29 06:32:51;;;;;;;;;;;;;;;18.59;54.55;102020.38;7398989;19;930;-66
2022/12/29 06:35:19;;;;;;;;;;;;;;;18.55;55.13;102024.25;7398298;19;1032;-62
2022/12/29 06:37:47;;;;;;;;;;;;;;;18.66;54.53;102019.00;7399673;19;1005;-63
2022/12/29 06:40:16;;;;;;;;;;;;;;;18.80;54.53;102016.31;7398429;19;989;-63
2022/12/29 06:42:47;;;;;;;;;;;;;;;18.82;54.34;102016.19;7397776;19;1846;-63
2022/12/29 06:45:15;;;;;;;;;;;;;;;18.72;54.55;102021.31;7404956;19;987;-66
2022/12/29 06:47:43;;;;;;;;;;;;;;;18.81;54.27;102015.31;7406522;19;993;-67
2022/12/29 06:50:11;;;;;;;;;;;;;;;18.76;54.45;102024.59;7405288;19;1079;-67
2022/12/29 06:52:40;;;;;;;;;;;;;;;18.55;54.74;102033.13;7406093;19;1022;-62
2022/12/29 06:55:08;;;;;;;;;;;;;;;18.40;55.10;102028.78;7405773;19;1008;-63
2022/12/29 06:57:37;;;;;;;;;;;;;;;18.31;55.39;102040.09;7406179;19;1031;-63
2022/12/29 07:00:08;;;;;;;;;;;;;;;18.32;55.65;102047.16;7405161;19;1079;-67
2022/12/29 07:02:37;;;;;;;;;;;;;;;18.29;55.42;102046.41;7403011;19;1861;-62
2022/12/29 07:05:07;;;;;;;;;;;;;;;18.27;55.78;102056.34;7405419;19;1085;-64
2022/12/29 07:07:35;;;;;;;;;;;;;;;18.21;55.97;102038.00;7405276;19;939;-63
2022/12/29 07:10:03;;;;;;;;;;;;;;;18.25;55.74;102047.56;7405557;19;1087;-63
2022/12/29 07:12:32;;;;;;;;;;;;;;;18.34;55.62;102045.25;7405072;19;943;-67
2022/12/29 07:15:00;;;;;;;;;;;;;;;18.26;55.55;102046.63;7404371;19;992;-67
2022/12/29 07:17:31;;;;;;;;;;;;;;;18.26;55.65;102060.00;7405334;19;1104;-67
2022/12/29 07:19:59;;;;;;;;;;;;;;;18.24;55.86;102067.28;7404552;19;1040;-66
2022/12/29 07:22:27;;;;;;;;;;;;;;;18.30;55.74;102057.97;7404624;19;1082;-62
2022/12/29 07:24:56;;;;;;;;;;;;;;;18.34;55.50;102064.00;7401843;19;1836;-62
2022/12/29 07:27:24;;;;;;;;;;;;;;;18.29;55.54;102048.22;7403618;19;1017;-67
2022/12/29 07:29:52;;;;;;;;;;;;;;;18.25;55.71;102047.56;7403443;19;983;-62
2022/12/29 07:32:21;;;;;;;;;;;;;;;18.31;55.45;102040.09;7404384;19;1112;-63
2022/12/29 07:34:52;;;;;;;;;;;;;;;18.43;55.63;102050.88;7404070;19;1071;-62
2022/12/29 07:37:20;;;;;;;;;;;;;;;18.42;55.35;102053.63;7403943;19;1098;-63
2022/12/29 07:39:49;;;;;;;;;;;;;;;18.39;55.70;102051.16;7403930;19;1024;-67
2022/12/29 07:42:17;;;;;;;;;;;;;;;18.49;55.36;102066.53;7403013;19;1028;-63
2022/12/29 07:44:46;;;;;;;;;;;;;;;18.53;55.07;102052.94;7402170;19;1851;-63
2022/12/29 07:47:14;;;;;;;;;;;;;;;18.51;55.42;102057.53;7404160;19;948;-63
2022/12/29 07:49:43;;;;;;;;;;;;;;;18.47;55.43;102056.88;7403765;19;989;-67
2022/12/29 07:52:13;;;;;;;;;;;;;;;18.53;55.17;102051.13;7402989;19;1075;-62
2022/12/29 07:54:42;;;;;;;;;;;;;;;18.58;55.19;102054.38;7403051;19;1120;-63
2022/12/29 07:57:11;;;;;;;;;;;;;;;18.61;55.34;102042.59;7401421;19;1063;-62
2022/12/29 07:59:39;;;;;;;;;;;;;;;18.58;55.20;102043.66;7403053;19;1002;-67
2022/12/29 08:02:07;;;;;;;;;;;;;;;18.58;55.18;102043.66;7401827;19;1317;-62
2022/12/29 08:04:36;;;;;;;;;;;;;;;18.60;55.35;102047.09;7401455;19;1858;-67
2022/12/29 08:07:04;;;;;;;;;;;;;;;18.67;55.04;102043.03;7403100;19;985;-67
2022/12/29 08:09:35;;;;;;;;;;;;;;;18.70;54.92;102050.00;7403263;19;981;-67
2022/12/29 08:12:03;;;;;;;;;;;;;;;18.67;55.20;102056.41;7402629;19;1022;-63
2022/12/29 08:14:31;;;;;;;;;;;;;;;18.75;55.07;102055.06;7402657;19;1005;-63
2022/12/29 08:17:00;;;;;;;;;;;;;;;18.81;54.62;102052.84;7403353;19;960;-67
2022/12/29 08:19:28;;;;;;;;;;;;;;;18.81;54.79;102046.63;7403023;19;997;-67
2022/12/29 08:21:56;;;;;;;;;;;;;;;18.81;54.88;102057.34;7402696;19;1075;-63
2022/12/29 08:24:25;;;;;;;;;;;;;;;18.83;54.89;102045.56;7401522;19;1854;-67
2022/12/29 08:26:56;;;;;;;;;;;;;;;18.94;54.79;102046.66;7403071;19;960;-67
2022/12/29 08:29:24;;;;;;;;;;;;;;;19.00;54.38;102049.81;7402048;19;1068;-66
2022/12/29 08:31:52;;;;;;;;;;;;;;;18.97;54.62;102041.09;7403222;19;960;-67
2022/12/29 08:34:21;;;;;;;;;;;;;;;18.93;54.72;102035.09;7402355;19;989;-67
2022/12/29 08:36:49;;;;;;;;;;;;;;;18.88;54.94;102042.59;7402019;19;988;-63
2022/12/29 08:39:18;;;;;;;;;;;;;;;18.96;54.72;102037.56;7402855;19;983;-66
2022/12/29 08:41:46;;;;;;;;;;;;;;;19.13;54.42;102051.63;7402714;19;980;-67
2022/12/29 08:44:17;;;;;;;;;;;;;;;19.12;54.61;102052.59;7401358;19;1845;-63
2022/12/29 08:46:45;;;;;;;;;;;;;;;19.05;54.48;102036.91;7401787;19;1012;-67
2022/12/29 08:49:14;;;;;;;;;;;;;;;19.18;54.58;102041.44;7402243;19;1068;-63
2022/12/29 08:51:42;;;;;;;;;;;;;;;19.21;54.49;102046.59;7401179;19;1001;-62
2022/12/29 08:54:10;;;;;;;;;;;;;;;19.18;54.22;102026.22;7401952;19;1008;-63
2022/12/29 08:56:38;;;;;;;;;;;;;;;19.21;54.30;102027.84;7402003;19;960;-67
2022/12/29 08:59:07;;;;;;;;;;;;;;;19.21;54.46;102031.38;7401421;19;997;-63
2022/12/29 09:01:40;;;;;;;;;;;;;;;19.29;54.34;102012.06;7400824;19;1356;-63
2022/12/29 09:04:08;;;;;;;;;;;;;;;19.27;54.19;102022.03;7400432;19;1850;-67
2022/12/29 09:06:36;;;;;;;;;;;;;;;19.30;54.50;102026.31;7401365;19;1012;-62
2022/12/29 09:09:05;;;;;;;;;;;;;;;19.27;54.23;102008.63;7400790;19;997;-67
2022/12/29 09:11:33;;;;;;;;;;;;;;;19.30;54.51;102037.94;7401657;19;1056;-67
2022/12/29 09:14:02;;;;;;;;;;;;;;;19.37;54.18;102006.16;7404702;19;980;-67
2022/12/29 09:16:30;;;;;;;;;;;;;;;19.38;54.41;101989.97;7400621;19;1071;-62
2022/12/29 09:19:01;;;;;;;;;;;;;;;19.32;54.35;101990.41;7401140;19;1001;-62
2022/12/29 09:21:29;;;;;;;;;;;;;;;19.31;54.42;101993.19;7400993;19;989;-62
2022/12/29 09:23:57;;;;;;;;;;;;;;;19.31;54.49;101982.47;7400134;19;1860;-67
2022/12/29 09:26:26;;;;;;;;;;;;;;;19.37;54.23;101993.59;7400209;19;1008;-67
2022/12/29 09:28:54;;;;;;;;;;;;;;;19.38;54.44;101989.97;7400922;19;1003;-67
2022/12/29 09:31:23;;;;;;;;;;;;;;;19.34;54.73;101980.44;7400608;19;1091;-63
2022/12/29 09:33:51;;;;;;;;;;;;;;;19.40;54.38;101979.13;7400135;19;1008;-63
2022/12/29 09:36:22;;;;;;;;;;;;;;;19.45;54.15;101985.88;7400827;19;1005;-62
2022/12/29 09:38:50;;;;;;;;;;;;;;;19.38;54.87;101976.56;7400799;19;935;-62
2022/12/29 09:41:23;;;;;;;;;;;;;;;19.38;54.91;101968.50;7399969;19;1291;-66
2022/12/29 09:43:59;;;;;;;;;;;;;;;19.39;54.54;101967.53;7400078;19;1838;-63
2022/12/29 09:46:28;;;;;;;;;;;;;;;19.51;54.58;101956.91;7400455;19;1017;-67
2022/12/29 09:49:09;;;;;;;;;;;;;;;19.54;54.24;101951.34;7400136;19;1017;-67
2022/12/29 09:51:42;;;;;;;;;;;;;;;19.51;54.36;101949.69;7400537;19;947;-63
2022/12/29 09:54:23;;;;;;;;;;;;;;;19.37;54.36;101955.19;7399649;19;1288;-63
2022/12/29 09:56:52;;;;;;;;;;;;;;;19.44;54.54;101954.66;7400051;19;938;-67
2022/12/29 09:59:23;;;;;;;;;;;;;;;19.46;54.72;101950.03;7400177;19;1006;-67
2022/12/29 10:01:55;;;;;;;;;;;;;;;19.44;54.50;101943.94;7398741;19;1386;-63
2022/12/29 10:04:23;;;;;;;;;;;;;;;19.42;54.69;101956.59;7399389;19;1885;-66
2022/12/29 10:06:57;;;;;;;;;;;;;;;19.39;54.79;101940.72;7399027;19;988;-67
2022/12/29 10:09:29;;;;;;;;;;;;;;;19.46;54.71;101933.09;7399919;19;957;-62
2022/12/29 10:12:03;;;;;;;;;;;;;;;19.49;54.48;101938.22;7399721;19;931;-63
2022/12/29 10:14:39;;;;;;;;;;;;;;;19.47;54.64;101941.00;7398818;19;1036;-62
2022/12/29 10:17:15;;;;;;;;;;;;;;;19.45;54.91;101937.59;7399908;19;1014;-67
2022/12/29 10:19:56;;;;;;;;;;;;;;;19.44;54.64;101943.94;7403800;19;1018;-66
2022/12/29 10:22:35;;;;;;;;;;;;;;;19.52;54.55;101927.28;7406634;19;995;-67
2022/12/29 10:25:04;;;;;;;;;;;;;;;19.59;54.59;101943.78;7404874;19;1842;-62
2022/12/29 10:27:34;;;;;;;;;;;;;;;19.54;54.55;101935.22;7407278;19;925;-63
2022/12/29 10:30:03;;;;;;;;;;;;;;;19.53;54.69;101942.41;7406272;19;1079;-63
2022/12/29 10:32:36;;;;;;;;;;;;;;;19.61;54.38;101931.13;7406853;19;980;-67
2022/12/29 10:35:08;;;;;;;;;;;;;;;19.62;54.66;101931.00;7406618;19;1005;-67
2022/12/29 10:37:43;;;;;;;;;;;;;;;19.57;54.69;101917.06;7406422;19;942;-67
2022/12/29 10:40:19;;;;;;;;;;;;;;;19.56;54.63;101927.94;7405899;19;979;-67
2022/12/29 10:42:49;;;;;;;;;;;;;;;19.52;54.55;101916.56;7406858;19;964;-63
2022/12/29 10:45:19;;;;;;;;;;;;;;;19.63;54.41;101913.09;7404357;19;1859;-67
2022/12/29 10:47:52;;;;;;;;;;;;;;;19.58;54.64;101913.44;7406214;19;935;-66
2022/12/29 10:50:21;;;;;;;;;;;;;;;19.55;54.74;101910.09;7406602;19;964;-67
2022/12/29 10:52:52;;;;;;;;;;;;;;;19.51;55.04;101916.66;7406150;19;927;-63
2022/12/29 10:55:24;;;;;;;;;;;;;;;19.56;54.86;101912.69;7405959;19;1001;-67
2022/12/29 10:57:52;;;;;;;;;;;;;;;19.73;54.41;101911.47;7406329;19;1060;-67
2022/12/29 11:00:22;;;;;;;;;;;;;;;19.71;54.45;101908.03;7405854;19;947;-67
2022/12/29 11:02:57;;;;;;;;;;;;;;;19.63;54.68;101902.34;7402843;19;1379;-63
2022/12/29 11:05:28;;;;;;;;;;;;;;;19.63;54.74;101910.41;7403257;19;1852;-63
2022/12/29 11:08:01;;;;;;;;;;;;;;;19.65;54.59;101906.63;7405625;19;1100;-66
2022/12/29 11:10:33;;;;;;;;;;;;;;;19.67;54.73;101903.84;7405400;19;1022;-63
2022/12/29 11:13:02;;;;;;;;;;;;;;;19.64;54.54;101904.94;7404808;19;1811;-63
2022/12/29 11:15:40;;;;;;;;;;;;;;;19.57;55.01;101903.66;7405029;19;996;-63
2022/12/29 11:18:20;;;;;;;;;;;;;;;19.59;54.84;101892.81;7405588;19;972;-62
2022/12/29 11:20:48;;;;;;;;;;;;;;;19.70;54.68;101887.53;7404731;19;1019;-67
2022/12/29 11:23:31;;;;;;;;;;;;;;;19.63;54.79;101886.25;7405090;19;1001;-62
2022/12/29 11:26:09;;;;;;;;;;;;;;;19.54;55.13;101881.56;7402123;19;1850;-63
2022/12/29 11:28:38;;;;;;;;;;;;;;;19.62;54.92;101884.56;7404794;19;985;-62
2022/12/29 11:31:08;;;;;;;;;;;;;;;19.67;54.50;101882.38;7401089;19;1047;-62
2022/12/29 11:33:37;;;;;;;;;;;;;;;19.67;54.67;101882.38;7404501;19;1001;-62
2022/12/29 11:36:07;;;;;;;;;;;;;;;19.58;55.20;101877.69;7404178;19;989;-66
2022/12/29 11:38:39;;;;;;;;;;;;;;;19.57;55.20;101881.34;7404027;19;1004;-67
2022/12/29 11:41:08;;;;;;;;;;;;;;;19.65;55.10;101878.94;7404367;19;1261;-63
2022/12/29 11:43:39;;;;;;;;;;;;;;;19.71;54.70;101867.78;7403983;19;1000;-67
2022/12/29 11:46:08;;;;;;;;;;;;;;;19.74;54.94;101869.41;7402729;19;1849;-63
2022/12/29 11:48:41;;;;;;;;;;;;;;;19.64;54.72;101859.31;7403412;19;1080;-67
2022/12/29 11:51:10;;;;;;;;;;;;;;;19.55;55.17;101867.19;7404362;19;947;-66
2022/12/29 11:53:45;;;;;;;;;;;;;;;19.68;54.67;101858.09;7403580;19;997;-67
2022/12/29 11:56:15;;;;;;;;;;;;;;;19.77;54.62;101853.91;7404165;19;1129;-63
2022/12/29 11:58:43;;;;;;;;;;;;;;;19.75;54.72;101853.16;7404088;19;939;-67
2022/12/29 12:01:16;;;;;;;;;;;;;;;19.77;54.76;101859.28;7401803;19;1363;-63
2022/12/29 12:03:48;;;;;;;;;;;;;;;19.76;54.91;101854.91;7403296;19;1256;-66
2022/12/29 12:06:20;;;;;;;;;;;;;;;19.84;54.67;101854.31;7400962;19;1837;-62
2022/12/29 12:08:55;;;;;;;;;;;;;;;19.78;54.93;101860.16;7404128;19;909;-66
2022/12/29 12:11:33;;;;;;;;;;;;;;;19.80;54.95;101852.84;7403633;19;1009;-62
2022/12/29 12:14:03;;;;;;;;;;;;;;;19.75;54.93;101850.47;7403159;19;1014;-66
2022/12/29 12:16:35;;;;;;;;;;;;;;;19.82;54.84;101853.59;7403358;19;1001;-67
2022/12/29 12:19:07;;;;;;;;;;;;;;;19.84;54.66;101830.16;7402783;19;985;-67
2022/12/29 12:21:40;;;;;;;;;;;;;;;19.84;54.96;101841.75;7402555;19;1032;-67
2022/12/29 12:24:26;;;;;;;;;;;;;;;19.80;54.90;101840.28;7403581;19;943;-66
2022/12/29 12:27:00;;;;;;;;;;;;;;;19.74;55.15;101821.94;7402853;19;1036;-63
2022/12/29 12:29:35;;;;;;;;;;;;;;;19.80;54.83;101826.84;7402953;19;927;-67
2022/12/29 12:32:07;;;;;;;;;;;;;;;19.76;54.77;101833.41;7402251;19;1154;-67
2022/12/29 12:34:38;;;;;;;;;;;;;;;19.71;55.09;101840.06;7402827;19;989;-66
2022/12/29 12:37:16;;;;;;;;;;;;;;;19.60;55.56;101827.47;7402755;19;1007;-67
2022/12/29 12:39:51;;;;;;;;;;;;;;;19.59;55.55;101839.16;7402119;19;952;-63
2022/12/29 12:42:28;;;;;;;;;;;;;;;19.71;55.09;101835.59;7401851;19;1009;-67
2022/12/29 12:45:01;;;;;;;;;;;;;;;19.73;55.15;101817.53;7401732;19;1859;-63
2022/12/29 12:47:39;;;;;;;;;;;;;;;19.60;55.38;101828.31;7402334;19;957;-63
2022/12/29 12:50:34;;;;;;;;;;;;;;;19.63;55.51;101811.13;7402147;19;981;-67
2022/12/29 12:53:09;;;;;;;;;;;;;;;19.83;55.03;101818.56;7399985;19;1052;-67
2022/12/29 12:55:47;;;;;;;;;;;;;;;19.77;55.05;101813.66;7401338;19;997;-63
2022/12/29 12:58:21;;;;;;;;;;;;;;;19.73;55.38;101825.59;7401608;19;985;-67
2022/12/29 13:00:55;;;;;;;;;;;;;;;19.55;55.72;101830.47;7401042;19;1450;-67
2022/12/29 13:03:28;;;;;;;;;;;;;;;19.65;55.51;101825.28;7401281;19;993;-67
2022/12/29 13:06:04;;;;;;;;;;;;;;;19.84;55.26;101822.97;7399983;19;1877;-67
2022/12/29 13:08:42;;;;;;;;;;;;;;;19.77;54.97;101824.38;7401346;19;996;-67
2022/12/29 13:11:20;;;;;;;;;;;;;;;19.66;55.44;101818.94;7402287;19;936;-62
2022/12/29 13:13:58;;;;;;;;;;;;;;;19.76;55.27;101822.69;7400463;19;949;-62
2022/12/29 13:16:32;;;;;;;;;;;;;;;19.86;54.94;101818.34;7401038;19;964;-67
2022/12/29 13:19:05;;;;;;;;;;;;;;;19.90;54.82;101823.50;7401202;19;1063;-63
2022/12/29 13:21:42;;;;;;;;;;;;;;;19.80;55.18;101821.47;7399640;19;974;-63
2022/12/29 13:24:15;;;;;;;;;;;;;;;19.58;55.69;101824.03;7400842;19;1536;-67
2022/12/29 13:26:49;;;;;;;;;;;;;;;19.59;55.70;101836.47;7399681;19;1845;-66
2022/12/29 13:29:19;;;;;;;;;;;;;;;19.77;55.08;101840.50;7401373;19;968;-62
2022/12/29 13:31:53;;;;;;;;;;;;;;;19.78;55.45;101831.47;7400801;19;1027;-63
2022/12/29 13:34:26;;;;;;;;;;;;;;;19.63;55.42;101830.75;7400104;19;1005;-62
2022/12/29 13:36:56;;;;;;;;;;;;;;;19.54;55.72;101823.41;7400907;19;1001;-67
2022/12/29 13:39:27;;;;;;;;;;;;;;;19.71;55.22;101823.97;7400627;19;947;-63
2022/12/29 13:41:59;;;;;;;;;;;;;;;19.73;55.53;101828.28;7400295;19;942;-67
2022/12/29 13:44:30;;;;;;;;;;;;;;;19.70;55.56;101816.91;7401129;19;1012;-67
2022/12/29 13:47:01;;;;;;;;;;;;;;;19.55;55.70;101802.78;7398299;19;1861;-67